Terminal Aerodrome Forecast
Issued by NWS Wilmington, OH

Current Version | Previous Version | Graphics & Text | Print | Product List | Glossary On
Versions: 1 2 3 4 5 6 7 8 9 10 11 12 13 14 15 16 17 18 19 20 21 22 23
000
FTUS41 KILN 281700
TAFCVG
TAF
KCVG 281730Z 2818/2924 06008KT P6SM FEW025 SCT100
     FM290000 08005KT P6SM SCT100
     FM291300 13006KT P6SM SCT120=

USA.gov is the U.S. government's official web portal to all federal, state and local government web resources and services.